sensor_id;sensor_type;location;lat;lon;timestamp;P1;durP1;ratioP1;P2;durP2;ratioP2
53253;SDS011;39148;53.332;6.922;2022-10-15T00:01:13;11.13;;;9.00;;
53253;SDS011;39148;53.332;6.922;2022-10-15T00:03:42;12.20;;;8.95;;
53253;SDS011;39148;53.332;6.922;2022-10-15T00:06:09;14.65;;;9.30;;
53253;SDS011;39148;53.332;6.922;2022-10-15T00:08:37;12.13;;;8.73;;
53253;SDS011;39148;53.332;6.922;2022-10-15T00:11:04;13.05;;;9.90;;
53253;SDS011;39148;53.332;6.922;2022-10-15T00:13:32;14.32;;;9.60;;
53253;SDS011;39148;53.332;6.922;2022-10-15T00:15:59;13.35;;;9.30;;
53253;SDS011;39148;53.332;6.922;2022-10-15T00:18:25;13.98;;;9.75;;
53253;SDS011;39148;53.332;6.922;2022-10-15T00:20:51;13.82;;;9.30;;
53253;SDS011;39148;53.332;6.922;2022-10-15T00:23:16;13.70;;;10.15;;
53253;SDS011;39148;53.332;6.922;2022-10-15T00:25:42;12.80;;;9.57;;
53253;SDS011;39148;53.332;6.922;2022-10-15T00:28:08;15.43;;;11.05;;
53253;SDS011;39148;53.332;6.922;2022-10-15T00:30:33;14.65;;;10.20;;
53253;SDS011;39148;53.332;6.922;2022-10-15T00:32:59;14.23;;;9.52;;
53253;SDS011;39148;53.332;6.922;2022-10-15T00:35:25;13.65;;;10.07;;
53253;SDS011;39148;53.332;6.922;2022-10-15T00:37:50;12.27;;;10.05;;
53253;SDS011;39148;53.332;6.922;2022-10-15T00:40:16;14.27;;;11.20;;
53253;SDS011;39148;53.332;6.922;2022-10-15T00:42:43;14.13;;;10.40;;
53253;SDS011;39148;53.332;6.922;2022-10-15T00:45:10;13.90;;;11.07;;
53253;SDS011;39148;53.332;6.922;2022-10-15T00:47:38;13.10;;;10.57;;
53253;SDS011;39148;53.332;6.922;2022-10-15T00:55:18;17.02;;;11.20;;
53253;SDS011;39148;53.332;6.922;2022-10-15T00:57:48;14.25;;;10.93;;
53253;SDS011;39148;53.332;6.922;2022-10-15T01:00:15;13.95;;;11.15;;
53253;SDS011;39148;53.332;6.922;2022-10-15T01:02:42;15.13;;;10.57;;
53253;SDS011;39148;53.332;6.922;2022-10-15T01:05:09;14.60;;;10.63;;
53253;SDS011;39148;53.332;6.922;2022-10-15T01:07:36;14.85;;;11.05;;
53253;SDS011;39148;53.332;6.922;2022-10-15T01:10:02;15.35;;;11.00;;
53253;SDS011;39148;53.332;6.922;2022-10-15T01:17:53;15.75;;;11.55;;
53253;SDS011;39148;53.332;6.922;2022-10-15T01:20:33;15.18;;;11.65;;
53253;SDS011;39148;53.332;6.922;2022-10-15T01:37:54;16.23;;;12.27;;
53253;SDS011;39148;53.332;6.922;2022-10-15T01:40:35;16.00;;;12.10;;
53253;SDS011;39148;53.332;6.922;2022-10-15T01:43:10;16.13;;;11.98;;
53253;SDS011;39148;53.332;6.922;2022-10-15T01:48:10;15.48;;;12.43;;
53253;SDS011;39148;53.332;6.922;2022-10-15T01:50:38;16.80;;;12.63;;
53253;SDS011;39148;53.332;6.922;2022-10-15T01:53:08;17.67;;;12.57;;
53253;SDS011;39148;53.332;6.922;2022-10-15T01:55:40;15.32;;;12.27;;
53253;SDS011;39148;53.332;6.922;2022-10-15T01:58:09;16.73;;;12.82;;
53253;SDS011;39148;53.332;6.922;2022-10-15T02:00:37;16.25;;;12.63;;
53253;SDS011;39148;53.332;6.922;2022-10-15T02:03:06;18.77;;;13.32;;
53253;SDS011;39148;53.332;6.922;2022-10-15T02:05:37;16.35;;;12.77;;
53253;SDS011;39148;53.332;6.922;2022-10-15T02:08:14;15.88;;;12.27;;
53253;SDS011;39148;53.332;6.922;2022-10-15T02:10:53;15.48;;;12.68;;
53253;SDS011;39148;53.332;6.922;2022-10-15T02:13:32;16.42;;;12.07;;
53253;SDS011;39148;53.332;6.922;2022-10-15T02:16:24;16.25;;;12.13;;
53253;SDS011;39148;53.332;6.922;2022-10-15T02:19:06;14.70;;;11.93;;
53253;SDS011;39148;53.332;6.922;2022-10-15T02:21:46;15.88;;;12.50;;
53253;SDS011;39148;53.332;6.922;2022-10-15T02:24:21;16.17;;;12.88;;
53253;SDS011;39148;53.332;6.922;2022-10-15T02:26:50;15.88;;;12.80;;
53253;SDS011;39148;53.332;6.922;2022-10-15T02:29:19;16.20;;;11.80;;
53253;SDS011;39148;53.332;6.922;2022-10-15T02:31:47;17.52;;;13.40;;
53253;SDS011;39148;53.332;6.922;2022-10-15T02:34:18;17.17;;;12.40;;
53253;SDS011;39148;53.332;6.922;2022-10-15T02:36:46;15.52;;;12.77;;
53253;SDS011;39148;53.332;6.922;2022-10-15T02:39:13;16.23;;;12.95;;
53253;SDS011;39148;53.332;6.922;2022-10-15T02:41:43;16.65;;;13.05;;
53253;SDS011;39148;53.332;6.922;2022-10-15T02:44:10;15.10;;;12.18;;
53253;SDS011;39148;53.332;6.922;2022-10-15T02:46:36;17.08;;;12.13;;
53253;SDS011;39148;53.332;6.922;2022-10-15T02:49:01;15.52;;;12.50;;
53253;SDS011;39148;53.332;6.922;2022-10-15T02:51:30;15.95;;;12.77;;
53253;SDS011;39148;53.332;6.922;2022-10-15T02:53:59;16.00;;;12.35;;
53253;SDS011;39148;53.332;6.922;2022-10-15T02:56:26;15.68;;;12.80;;
53253;SDS011;39148;53.332;6.922;2022-10-15T02:58:52;15.07;;;12.13;;
53253;SDS011;39148;53.332;6.922;2022-10-15T03:01:18;16.00;;;12.70;;
53253;SDS011;39148;53.332;6.922;2022-10-15T03:03:44;17.63;;;12.60;;
53253;SDS011;39148;53.332;6.922;2022-10-15T03:06:10;15.82;;;13.02;;
53253;SDS011;39148;53.332;6.922;2022-10-15T03:08:35;16.10;;;12.48;;
53253;SDS011;39148;53.332;6.922;2022-10-15T03:11:01;15.55;;;12.35;;
53253;SDS011;39148;53.332;6.922;2022-10-15T03:13:27;16.80;;;12.68;;
53253;SDS011;39148;53.332;6.922;2022-10-15T03:15:53;18.83;;;13.75;;
53253;SDS011;39148;53.332;6.922;2022-10-15T03:18:19;17.77;;;12.52;;
53253;SDS011;39148;53.332;6.922;2022-10-15T03:20:55;16.08;;;12.23;;
53253;SDS011;39148;53.332;6.922;2022-10-15T03:23:21;16.27;;;12.93;;
53253;SDS011;39148;53.332;6.922;2022-10-15T03:25:47;16.42;;;12.05;;
53253;SDS011;39148;53.332;6.922;2022-10-15T03:28:13;17.00;;;12.82;;
53253;SDS011;39148;53.332;6.922;2022-10-15T03:30:38;16.00;;;13.30;;
53253;SDS011;39148;53.332;6.922;2022-10-15T03:33:04;16.45;;;12.48;;
53253;SDS011;39148;53.332;6.922;2022-10-15T03:35:30;16.88;;;13.55;;
53253;SDS011;39148;53.332;6.922;2022-10-15T03:37:55;16.02;;;12.20;;
53253;SDS011;39148;53.332;6.922;2022-10-15T03:40:21;16.50;;;13.05;;
53253;SDS011;39148;53.332;6.922;2022-10-15T03:42:50;16.27;;;12.80;;
53253;SDS011;39148;53.332;6.922;2022-10-15T03:45:17;16.50;;;14.23;;
53253;SDS011;39148;53.332;6.922;2022-10-15T03:47:43;15.93;;;13.25;;
53253;SDS011;39148;53.332;6.922;2022-10-15T03:50:09;15.52;;;12.90;;
53253;SDS011;39148;53.332;6.922;2022-10-15T03:52:35;17.77;;;13.45;;
53253;SDS011;39148;53.332;6.922;2022-10-15T03:55:01;15.93;;;13.27;;
53253;SDS011;39148;53.332;6.922;2022-10-15T03:57:26;16.35;;;12.73;;
53253;SDS011;39148;53.332;6.922;2022-10-15T03:59:52;17.50;;;13.43;;
53253;SDS011;39148;53.332;6.922;2022-10-15T04:02:18;17.85;;;13.88;;
53253;SDS011;39148;53.332;6.922;2022-10-15T04:04:44;15.70;;;13.35;;
53253;SDS011;39148;53.332;6.922;2022-10-15T04:07:09;15.45;;;12.57;;
53253;SDS011;39148;53.332;6.922;2022-10-15T04:09:35;16.45;;;12.68;;
53253;SDS011;39148;53.332;6.922;2022-10-15T04:12:01;17.40;;;12.75;;
53253;SDS011;39148;53.332;6.922;2022-10-15T04:14:26;17.20;;;12.98;;
53253;SDS011;39148;53.332;6.922;2022-10-15T04:16:54;17.20;;;13.77;;
53253;SDS011;39148;53.332;6.922;2022-10-15T04:19:20;17.45;;;12.38;;
53253;SDS011;39148;53.332;6.922;2022-10-15T04:21:45;17.08;;;13.10;;
53253;SDS011;39148;53.332;6.922;2022-10-15T04:24:11;16.50;;;12.52;;
53253;SDS011;39148;53.332;6.922;2022-10-15T04:26:37;16.15;;;13.57;;
53253;SDS011;39148;53.332;6.922;2022-10-15T04:29:03;15.77;;;13.15;;
53253;SDS011;39148;53.332;6.922;2022-10-15T04:31:28;15.15;;;12.88;;
53253;SDS011;39148;53.332;6.922;2022-10-15T04:33:54;15.63;;;12.57;;
53253;SDS011;39148;53.332;6.922;2022-10-15T04:36:20;18.52;;;13.02;;
53253;SDS011;39148;53.332;6.922;2022-10-15T04:38:45;14.93;;;11.93;;
53253;SDS011;39148;53.332;6.922;2022-10-15T04:41:11;16.33;;;12.50;;
53253;SDS011;39148;53.332;6.922;2022-10-15T04:43:37;15.63;;;12.50;;
53253;SDS011;39148;53.332;6.922;2022-10-15T04:46:05;15.80;;;11.80;;
53253;SDS011;39148;53.332;6.922;2022-10-15T04:48:32;16.00;;;12.07;;
53253;SDS011;39148;53.332;6.922;2022-10-15T04:51:06;15.98;;;12.63;;
53253;SDS011;39148;53.332;6.922;2022-10-15T04:53:39;17.88;;;13.00;;
53253;SDS011;39148;53.332;6.922;2022-10-15T04:56:06;16.05;;;12.50;;
53253;SDS011;39148;53.332;6.922;2022-10-15T04:58:35;17.30;;;13.10;;
53253;SDS011;39148;53.332;6.922;2022-10-15T05:01:05;15.93;;;12.77;;
53253;SDS011;39148;53.332;6.922;2022-10-15T05:03:32;16.27;;;12.25;;
53253;SDS011;39148;53.332;6.922;2022-10-15T05:05:59;16.08;;;12.52;;
53253;SDS011;39148;53.332;6.922;2022-10-15T05:08:30;15.15;;;12.38;;
53253;SDS011;39148;53.332;6.922;2022-10-15T05:11:03;14.75;;;12.18;;
53253;SDS011;39148;53.332;6.922;2022-10-15T05:13:30;15.13;;;12.48;;
53253;SDS011;39148;53.332;6.922;2022-10-15T05:16:00;15.70;;;11.85;;
53253;SDS011;39148;53.332;6.922;2022-10-15T05:18:45;16.05;;;12.63;;
53253;SDS011;39148;53.332;6.922;2022-10-15T05:21:12;15.30;;;12.65;;
53253;SDS011;39148;53.332;6.922;2022-10-15T05:23:38;16.02;;;12.27;;
53253;SDS011;39148;53.332;6.922;2022-10-15T05:26:08;16.33;;;12.55;;
53253;SDS011;39148;53.332;6.922;2022-10-15T05:28:41;16.25;;;12.63;;
53253;SDS011;39148;53.332;6.922;2022-10-15T05:31:07;16.08;;;12.93;;
53253;SDS011;39148;53.332;6.922;2022-10-15T05:33:35;17.27;;;12.75;;
53253;SDS011;39148;53.332;6.922;2022-10-15T05:36:11;17.75;;;12.80;;
53253;SDS011;39148;53.332;6.922;2022-10-15T05:38:37;15.45;;;12.10;;
53253;SDS011;39148;53.332;6.922;2022-10-15T05:41:03;15.82;;;12.68;;
53253;SDS011;39148;53.332;6.922;2022-10-15T05:43:29;16.90;;;12.82;;
53253;SDS011;39148;53.332;6.922;2022-10-15T05:45:55;19.33;;;13.65;;
53253;SDS011;39148;53.332;6.922;2022-10-15T05:48:21;16.85;;;12.10;;
53253;SDS011;39148;53.332;6.922;2022-10-15T05:50:47;17.52;;;12.88;;
53253;SDS011;39148;53.332;6.922;2022-10-15T05:53:13;15.82;;;12.60;;
53253;SDS011;39148;53.332;6.922;2022-10-15T05:55:38;17.27;;;13.00;;
53253;SDS011;39148;53.332;6.922;2022-10-15T05:58:04;17.13;;;13.00;;
53253;SDS011;39148;53.332;6.922;2022-10-15T06:00:30;15.90;;;13.07;;
53253;SDS011;39148;53.332;6.922;2022-10-15T06:02:56;18.63;;;14.27;;
53253;SDS011;39148;53.332;6.922;2022-10-15T06:05:23;16.10;;;12.85;;
53253;SDS011;39148;53.332;6.922;2022-10-15T06:07:52;18.48;;;13.77;;
53253;SDS011;39148;53.332;6.922;2022-10-15T06:10:17;19.92;;;13.80;;
53253;SDS011;39148;53.332;6.922;2022-10-15T06:12:47;18.38;;;14.02;;
53253;SDS011;39148;53.332;6.922;2022-10-15T06:15:14;16.48;;;12.95;;
53253;SDS011;39148;53.332;6.922;2022-10-15T06:17:40;18.63;;;13.63;;
53253;SDS011;39148;53.332;6.922;2022-10-15T06:20:06;18.20;;;13.93;;
53253;SDS011;39148;53.332;6.922;2022-10-15T06:22:32;20.83;;;14.27;;
53253;SDS011;39148;53.332;6.922;2022-10-15T06:24:58;17.10;;;13.02;;
53253;SDS011;39148;53.332;6.922;2022-10-15T06:27:24;18.08;;;13.98;;
53253;SDS011;39148;53.332;6.922;2022-10-15T06:29:49;18.95;;;14.10;;
53253;SDS011;39148;53.332;6.922;2022-10-15T06:32:15;18.80;;;14.20;;
53253;SDS011;39148;53.332;6.922;2022-10-15T06:34:42;18.13;;;13.38;;
53253;SDS011;39148;53.332;6.922;2022-10-15T06:37:08;18.83;;;13.55;;
53253;SDS011;39148;53.332;6.922;2022-10-15T06:39:34;18.33;;;14.38;;
53253;SDS011;39148;53.332;6.922;2022-10-15T06:41:59;20.88;;;15.35;;
53253;SDS011;39148;53.332;6.922;2022-10-15T06:44:25;18.55;;;14.55;;
53253;SDS011;39148;53.332;6.922;2022-10-15T06:46:51;20.27;;;14.20;;
53253;SDS011;39148;53.332;6.922;2022-10-15T06:49:16;17.80;;;14.18;;
53253;SDS011;39148;53.332;6.922;2022-10-15T06:51:42;18.90;;;13.82;;
53253;SDS011;39148;53.332;6.922;2022-10-15T06:54:07;20.40;;;15.77;;
53253;SDS011;39148;53.332;6.922;2022-10-15T06:56:33;20.33;;;15.10;;
53253;SDS011;39148;53.332;6.922;2022-10-15T06:58:59;19.45;;;14.77;;
53253;SDS011;39148;53.332;6.922;2022-10-15T07:01:25;21.65;;;15.50;;
53253;SDS011;39148;53.332;6.922;2022-10-15T07:03:51;21.33;;;15.43;;
53253;SDS011;39148;53.332;6.922;2022-10-15T07:06:16;19.15;;;15.25;;
53253;SDS011;39148;53.332;6.922;2022-10-15T07:08:42;21.42;;;15.32;;
53253;SDS011;39148;53.332;6.922;2022-10-15T07:11:10;20.23;;;15.00;;
53253;SDS011;39148;53.332;6.922;2022-10-15T07:13:36;19.77;;;15.73;;
53253;SDS011;39148;53.332;6.922;2022-10-15T07:16:03;20.95;;;15.75;;
53253;SDS011;39148;53.332;6.922;2022-10-15T07:18:30;21.42;;;15.88;;
53253;SDS011;39148;53.332;6.922;2022-10-15T07:20:56;19.88;;;15.65;;
53253;SDS011;39148;53.332;6.922;2022-10-15T07:23:21;21.00;;;15.60;;
53253;SDS011;39148;53.332;6.922;2022-10-15T07:25:47;17.95;;;14.70;;
53253;SDS011;39148;53.332;6.922;2022-10-15T07:28:13;18.50;;;14.75;;
53253;SDS011;39148;53.332;6.922;2022-10-15T07:30:38;23.63;;;16.25;;
53253;SDS011;39148;53.332;6.922;2022-10-15T07:33:04;20.25;;;15.60;;
53253;SDS011;39148;53.332;6.922;2022-10-15T07:35:30;20.65;;;15.98;;
53253;SDS011;39148;53.332;6.922;2022-10-15T07:37:58;20.63;;;15.00;;
53253;SDS011;39148;53.332;6.922;2022-10-15T07:40:25;20.33;;;15.25;;
53253;SDS011;39148;53.332;6.922;2022-10-15T07:42:51;21.38;;;16.02;;
53253;SDS011;39148;53.332;6.922;2022-10-15T07:45:18;20.05;;;15.38;;
53253;SDS011;39148;53.332;6.922;2022-10-15T07:47:44;21.45;;;16.13;;
53253;SDS011;39148;53.332;6.922;2022-10-15T07:50:09;23.30;;;16.90;;
53253;SDS011;39148;53.332;6.922;2022-10-15T07:52:35;22.65;;;15.95;;
53253;SDS011;39148;53.332;6.922;2022-10-15T07:55:00;20.30;;;16.35;;
53253;SDS011;39148;53.332;6.922;2022-10-15T07:57:26;22.30;;;16.23;;
53253;SDS011;39148;53.332;6.922;2022-10-15T07:59:52;21.45;;;16.48;;
53253;SDS011;39148;53.332;6.922;2022-10-15T08:02:18;22.40;;;16.70;;
53253;SDS011;39148;53.332;6.922;2022-10-15T08:04:44;21.20;;;16.27;;
53253;SDS011;39148;53.332;6.922;2022-10-15T08:07:10;20.77;;;16.65;;
53253;SDS011;39148;53.332;6.922;2022-10-15T08:09:36;20.35;;;15.98;;
53253;SDS011;39148;53.332;6.922;2022-10-15T08:12:01;21.88;;;16.85;;
53253;SDS011;39148;53.332;6.922;2022-10-15T08:14:27;21.33;;;17.10;;
53253;SDS011;39148;53.332;6.922;2022-10-15T08:16:53;21.05;;;16.02;;
53253;SDS011;39148;53.332;6.922;2022-10-15T08:19:19;21.30;;;16.40;;
53253;SDS011;39148;53.332;6.922;2022-10-15T08:21:44;23.25;;;17.23;;
53253;SDS011;39148;53.332;6.922;2022-10-15T08:24:10;20.55;;;16.45;;
53253;SDS011;39148;53.332;6.922;2022-10-15T08:26:36;20.92;;;15.95;;
53253;SDS011;39148;53.332;6.922;2022-10-15T08:29:02;20.00;;;15.82;;
53253;SDS011;39148;53.332;6.922;2022-10-15T08:31:28;23.00;;;16.35;;
53253;SDS011;39148;53.332;6.922;2022-10-15T08:33:55;20.70;;;15.98;;
53253;SDS011;39148;53.332;6.922;2022-10-15T08:36:24;23.35;;;16.42;;
53253;SDS011;39148;53.332;6.922;2022-10-15T08:38:49;20.42;;;15.48;;
53253;SDS011;39148;53.332;6.922;2022-10-15T08:41:37;22.10;;;16.00;;
53253;SDS011;39148;53.332;6.922;2022-10-15T08:44:01;22.42;;;16.77;;
53253;SDS011;39148;53.332;6.922;2022-10-15T08:46:29;21.73;;;15.68;;
53253;SDS011;39148;53.332;6.922;2022-10-15T08:49:01;21.48;;;15.40;;
53253;SDS011;39148;53.332;6.922;2022-10-15T08:51:29;21.58;;;16.23;;
53253;SDS011;39148;53.332;6.922;2022-10-15T08:54:03;20.83;;;15.43;;
53253;SDS011;39148;53.332;6.922;2022-10-15T08:56:36;23.40;;;16.05;;
53253;SDS011;39148;53.332;6.922;2022-10-15T09:04:06;20.15;;;15.18;;
53253;SDS011;39148;53.332;6.922;2022-10-15T09:07:06;19.95;;;15.73;;
53253;SDS011;39148;53.332;6.922;2022-10-15T09:09:46;20.50;;;15.45;;
53253;SDS011;39148;53.332;6.922;2022-10-15T09:15:23;20.95;;;16.05;;
53253;SDS011;39148;53.332;6.922;2022-10-15T09:17:50;21.20;;;16.00;;
53253;SDS011;39148;53.332;6.922;2022-10-15T09:20:19;21.50;;;16.52;;
53253;SDS011;39148;53.332;6.922;2022-10-15T09:22:54;22.52;;;16.95;;
53253;SDS011;39148;53.332;6.922;2022-10-15T09:25:20;22.45;;;15.90;;
53253;SDS011;39148;53.332;6.922;2022-10-15T09:27:48;19.50;;;15.13;;
53253;SDS011;39148;53.332;6.922;2022-10-15T09:33:02;20.15;;;15.45;;
53253;SDS011;39148;53.332;6.922;2022-10-15T09:35:41;20.95;;;15.23;;
53253;SDS011;39148;53.332;6.922;2022-10-15T09:44:09;20.70;;;14.98;;
53253;SDS011;39148;53.332;6.922;2022-10-15T09:46:45;19.02;;;15.15;;
53253;SDS011;39148;53.332;6.922;2022-10-15T09:49:17;20.80;;;14.93;;
53253;SDS011;39148;53.332;6.922;2022-10-15T09:54:57;19.85;;;15.05;;
53253;SDS011;39148;53.332;6.922;2022-10-15T09:57:34;20.52;;;15.77;;
53253;SDS011;39148;53.332;6.922;2022-10-15T10:00:03;22.55;;;15.93;;
53253;SDS011;39148;53.332;6.922;2022-10-15T10:02:32;17.00;;;13.23;;
53253;SDS011;39148;53.332;6.922;2022-10-15T10:04:57;20.48;;;14.98;;
53253;SDS011;39148;53.332;6.922;2022-10-15T10:08:05;20.80;;;14.93;;
53253;SDS011;39148;53.332;6.922;2022-10-15T10:10:40;20.42;;;14.77;;
53253;SDS011;39148;53.332;6.922;2022-10-15T10:13:08;18.83;;;14.95;;
53253;SDS011;39148;53.332;6.922;2022-10-15T10:15:50;19.40;;;14.75;;
53253;SDS011;39148;53.332;6.922;2022-10-15T10:18:19;19.38;;;14.68;;
53253;SDS011;39148;53.332;6.922;2022-10-15T10:20:56;17.70;;;13.98;;
53253;SDS011;39148;53.332;6.922;2022-10-15T10:23:37;16.70;;;12.83;;
53253;SDS011;39148;53.332;6.922;2022-10-15T10:26:07;18.77;;;13.75;;
53253;SDS011;39148;53.332;6.922;2022-10-15T10:31:26;15.98;;;12.70;;
53253;SDS011;39148;53.332;6.922;2022-10-15T10:33:54;18.83;;;13.98;;
53253;SDS011;39148;53.332;6.922;2022-10-15T10:36:24;18.02;;;13.75;;
53253;SDS011;39148;53.332;6.922;2022-10-15T10:49:30;17.83;;;14.38;;
53253;SDS011;39148;53.332;6.922;2022-10-15T10:51:57;18.02;;;13.55;;
53253;SDS011;39148;53.332;6.922;2022-10-15T10:54:22;16.85;;;13.43;;
53253;SDS011;39148;53.332;6.922;2022-10-15T10:56:50;18.55;;;13.05;;
53253;SDS011;39148;53.332;6.922;2022-10-15T11:01:59;15.30;;;12.00;;
53253;SDS011;39148;53.332;6.922;2022-10-15T11:04:26;18.30;;;12.43;;
53253;SDS011;39148;53.332;6.922;2022-10-15T11:06:59;16.27;;;11.80;;
53253;SDS011;39148;53.332;6.922;2022-10-15T11:20:46;15.77;;;11.45;;
53253;SDS011;39148;53.332;6.922;2022-10-15T11:28:50;14.65;;;10.85;;
53253;SDS011;39148;53.332;6.922;2022-10-15T11:31:29;16.45;;;12.05;;
53253;SDS011;39148;53.332;6.922;2022-10-15T11:34:11;14.57;;;11.73;;
53253;SDS011;39148;53.332;6.922;2022-10-15T11:48:08;14.93;;;11.07;;
53253;SDS011;39148;53.332;6.922;2022-10-15T11:51:01;16.55;;;11.65;;
53253;SDS011;39148;53.332;6.922;2022-10-15T11:53:54;14.70;;;10.90;;
53253;SDS011;39148;53.332;6.922;2022-10-15T11:56:35;15.55;;;11.38;;
53253;SDS011;39148;53.332;6.922;2022-10-15T12:01:51;15.10;;;10.90;;
53253;SDS011;39148;53.332;6.922;2022-10-15T12:04:40;16.00;;;11.05;;
53253;SDS011;39148;53.332;6.922;2022-10-15T12:07:40;14.05;;;10.23;;
53253;SDS011;39148;53.332;6.922;2022-10-15T12:10:25;13.88;;;10.70;;
53253;SDS011;39148;53.332;6.922;2022-10-15T12:15:32;12.95;;;8.82;;
53253;SDS011;39148;53.332;6.922;2022-10-15T12:20:34;13.23;;;9.52;;
53253;SDS011;39148;53.332;6.922;2022-10-15T12:23:00;12.80;;;9.68;;
53253;SDS011;39148;53.332;6.922;2022-10-15T12:30:37;12.65;;;9.48;;
53253;SDS011;39148;53.332;6.922;2022-10-15T12:33:20;12.77;;;8.55;;
53253;SDS011;39148;53.332;6.922;2022-10-15T12:35:53;12.27;;;9.13;;
53253;SDS011;39148;53.332;6.922;2022-10-15T12:38:25;13.85;;;9.75;;
53253;SDS011;39148;53.332;6.922;2022-10-15T12:40:55;12.20;;;9.18;;
53253;SDS011;39148;53.332;6.922;2022-10-15T12:43:22;12.80;;;9.23;;
53253;SDS011;39148;53.332;6.922;2022-10-15T12:45:51;12.38;;;8.93;;
53253;SDS011;39148;53.332;6.922;2022-10-15T12:53:46;11.75;;;8.48;;
53253;SDS011;39148;53.332;6.922;2022-10-15T12:58:48;12.73;;;9.65;;
53253;SDS011;39148;53.332;6.922;2022-10-15T13:11:30;11.20;;;8.88;;
53253;SDS011;39148;53.332;6.922;2022-10-15T13:14:01;12.10;;;9.00;;
53253;SDS011;39148;53.332;6.922;2022-10-15T13:16:43;9.45;;;6.88;;
53253;SDS011;39148;53.332;6.922;2022-10-15T13:19:20;11.38;;;8.45;;
53253;SDS011;39148;53.332;6.922;2022-10-15T13:24:22;10.65;;;7.70;;
53253;SDS011;39148;53.332;6.922;2022-10-15T13:26:53;11.77;;;8.00;;
53253;SDS011;39148;53.332;6.922;2022-10-15T13:29:21;10.70;;;7.97;;
53253;SDS011;39148;53.332;6.922;2022-10-15T13:31:48;10.77;;;7.78;;
53253;SDS011;39148;53.332;6.922;2022-10-15T13:36:55;12.18;;;8.20;;
53253;SDS011;39148;53.332;6.922;2022-10-15T13:39:26;10.98;;;8.13;;
53253;SDS011;39148;53.332;6.922;2022-10-15T13:42:06;11.43;;;8.40;;
53253;SDS011;39148;53.332;6.922;2022-10-15T13:44:40;10.93;;;8.50;;
53253;SDS011;39148;53.332;6.922;2022-10-15T13:52:55;11.27;;;8.82;;
53253;SDS011;39148;53.332;6.922;2022-10-15T13:55:25;10.35;;;8.27;;
53253;SDS011;39148;53.332;6.922;2022-10-15T13:57:57;10.98;;;7.75;;
53253;SDS011;39148;53.332;6.922;2022-10-15T14:00:28;10.00;;;7.68;;
53253;SDS011;39148;53.332;6.922;2022-10-15T14:05:33;10.07;;;7.50;;
53253;SDS011;39148;53.332;6.922;2022-10-15T14:07:58;11.73;;;7.68;;
53253;SDS011;39148;53.332;6.922;2022-10-15T14:10:25;10.82;;;7.57;;
53253;SDS011;39148;53.332;6.922;2022-10-15T14:12:51;10.57;;;7.25;;
53253;SDS011;39148;53.332;6.922;2022-10-15T14:18:07;10.10;;;7.72;;
53253;SDS011;39148;53.332;6.922;2022-10-15T14:20:35;10.57;;;7.45;;
53253;SDS011;39148;53.332;6.922;2022-10-15T14:23:00;9.60;;;7.30;;
53253;SDS011;39148;53.332;6.922;2022-10-15T14:25:26;10.73;;;7.40;;
53253;SDS011;39148;53.332;6.922;2022-10-15T14:27:52;9.50;;;7.30;;
53253;SDS011;39148;53.332;6.922;2022-10-15T14:30:26;9.18;;;7.10;;
53253;SDS011;39148;53.332;6.922;2022-10-15T14:32:55;9.75;;;7.10;;
53253;SDS011;39148;53.332;6.922;2022-10-15T14:35:28;9.77;;;7.20;;
53253;SDS011;39148;53.332;6.922;2022-10-15T14:37:58;11.90;;;7.40;;
53253;SDS011;39148;53.332;6.922;2022-10-15T14:40:25;12.48;;;7.47;;
53253;SDS011;39148;53.332;6.922;2022-10-15T14:45:22;9.40;;;6.63;;
53253;SDS011;39148;53.332;6.922;2022-10-15T14:47:51;9.98;;;6.90;;
53253;SDS011;39148;53.332;6.922;2022-10-15T14:50:23;8.98;;;6.65;;
53253;SDS011;39148;53.332;6.922;2022-10-15T14:52:54;9.95;;;6.63;;
53253;SDS011;39148;53.332;6.922;2022-10-15T14:57:48;8.88;;;6.80;;
53253;SDS011;39148;53.332;6.922;2022-10-15T15:02:45;8.65;;;6.28;;
53253;SDS011;39148;53.332;6.922;2022-10-15T15:07:38;8.05;;;6.13;;
53253;SDS011;39148;53.332;6.922;2022-10-15T15:10:05;8.45;;;6.47;;
53253;SDS011;39148;53.332;6.922;2022-10-15T15:12:32;8.70;;;6.18;;
53253;SDS011;39148;53.332;6.922;2022-10-15T15:14:58;8.95;;;6.38;;
53253;SDS011;39148;53.332;6.922;2022-10-15T15:17:26;8.63;;;6.50;;
53253;SDS011;39148;53.332;6.922;2022-10-15T15:19:54;8.32;;;6.30;;
53253;SDS011;39148;53.332;6.922;2022-10-15T15:22:25;9.15;;;5.82;;
53253;SDS011;39148;53.332;6.922;2022-10-15T15:24:59;7.75;;;5.93;;
53253;SDS011;39148;53.332;6.922;2022-10-15T15:27:30;8.13;;;6.07;;
53253;SDS011;39148;53.332;6.922;2022-10-15T15:30:02;7.22;;;5.40;;
53253;SDS011;39148;53.332;6.922;2022-10-15T15:32:30;7.70;;;5.25;;
53253;SDS011;39148;53.332;6.922;2022-10-15T15:34:56;7.00;;;5.30;;
53253;SDS011;39148;53.332;6.922;2022-10-15T15:37:23;6.90;;;5.28;;
53253;SDS011;39148;53.332;6.922;2022-10-15T15:39:49;7.43;;;5.47;;
53253;SDS011;39148;53.332;6.922;2022-10-15T15:42:16;7.03;;;5.07;;
53253;SDS011;39148;53.332;6.922;2022-10-15T15:44:46;8.88;;;6.05;;
53253;SDS011;39148;53.332;6.922;2022-10-15T15:47:12;8.32;;;5.65;;
53253;SDS011;39148;53.332;6.922;2022-10-15T15:49:39;8.68;;;5.38;;
53253;SDS011;39148;53.332;6.922;2022-10-15T15:52:05;6.93;;;5.18;;
53253;SDS011;39148;53.332;6.922;2022-10-15T15:54:37;6.88;;;4.57;;
53253;SDS011;39148;53.332;6.922;2022-10-15T15:57:07;6.88;;;4.63;;
53253;SDS011;39148;53.332;6.922;2022-10-15T15:59:33;6.75;;;4.80;;
53253;SDS011;39148;53.332;6.922;2022-10-15T16:01:59;6.30;;;4.50;;
53253;SDS011;39148;53.332;6.922;2022-10-15T16:04:24;6.75;;;4.72;;
53253;SDS011;39148;53.332;6.922;2022-10-15T16:06:50;5.68;;;3.97;;
53253;SDS011;39148;53.332;6.922;2022-10-15T16:09:16;6.28;;;4.53;;
53253;SDS011;39148;53.332;6.922;2022-10-15T16:11:44;5.85;;;4.10;;
53253;SDS011;39148;53.332;6.922;2022-10-15T16:14:10;7.32;;;4.55;;
53253;SDS011;39148;53.332;6.922;2022-10-15T16:16:36;5.63;;;3.33;;
53253;SDS011;39148;53.332;6.922;2022-10-15T16:19:02;5.45;;;3.60;;
53253;SDS011;39148;53.332;6.922;2022-10-15T16:21:28;6.20;;;3.97;;
53253;SDS011;39148;53.332;6.922;2022-10-15T16:23:54;5.28;;;3.22;;
53253;SDS011;39148;53.332;6.922;2022-10-15T16:26:20;5.65;;;3.78;;
53253;SDS011;39148;53.332;6.922;2022-10-15T16:28:46;5.80;;;3.50;;
53253;SDS011;39148;53.332;6.922;2022-10-15T16:31:15;5.95;;;4.13;;
53253;SDS011;39148;53.332;6.922;2022-10-15T16:33:45;5.18;;;3.40;;
53253;SDS011;39148;53.332;6.922;2022-10-15T16:36:11;5.05;;;3.00;;
53253;SDS011;39148;53.332;6.922;2022-10-15T16:38:38;6.75;;;4.07;;
53253;SDS011;39148;53.332;6.922;2022-10-15T16:41:04;5.50;;;3.55;;
53253;SDS011;39148;53.332;6.922;2022-10-15T16:43:30;5.53;;;3.42;;
53253;SDS011;39148;53.332;6.922;2022-10-15T16:45:57;4.22;;;2.95;;
53253;SDS011;39148;53.332;6.922;2022-10-15T16:48:23;6.30;;;3.17;;
53253;SDS011;39148;53.332;6.922;2022-10-15T16:53:25;5.68;;;3.05;;
53253;SDS011;39148;53.332;6.922;2022-10-15T16:55:51;4.60;;;2.90;;
53253;SDS011;39148;53.332;6.922;2022-10-15T16:58:16;4.43;;;2.60;;
53253;SDS011;39148;53.332;6.922;2022-10-15T17:00:42;5.22;;;3.03;;
53253;SDS011;39148;53.332;6.922;2022-10-15T17:03:08;4.30;;;2.55;;
53253;SDS011;39148;53.332;6.922;2022-10-15T17:05:34;3.85;;;2.65;;
53253;SDS011;39148;53.332;6.922;2022-10-15T17:07:59;4.30;;;2.75;;
53253;SDS011;39148;53.332;6.922;2022-10-15T17:10:25;4.38;;;2.40;;